createdAt,value
2018-11-25T00:00:20.150Z,21.77
2018-11-25T00:02:49.009Z,20.97
2018-11-25T00:05:17.928Z,21.50
2018-11-25T00:07:53.145Z,20.97
2018-11-25T00:10:22.026Z,21.27
2018-11-25T00:12:51.261Z,20.13
2018-11-25T00:15:21.526Z,21.63
2018-11-25T00:17:50.371Z,21.27
2018-11-25T00:20:19.258Z,20.70
2018-11-25T00:22:48.069Z,20.57
2018-11-25T00:25:16.955Z,20.70
2018-11-25T00:27:45.791Z,20.43
2018-11-25T00:30:16.212Z,20.10
2018-11-25T00:32:45.225Z,20.63
2018-11-25T00:35:16.097Z,20.67
2018-11-25T00:37:48.260Z,20.60
2018-11-25T00:40:15.694Z,20.03
2018-11-25T00:42:45.039Z,20.37
2018-11-25T00:45:15.784Z,20.60
2018-11-25T00:47:44.642Z,20.20
2018-11-25T00:50:14.330Z,20.27
2018-11-25T00:52:43.165Z,18.93
2018-11-25T00:55:14.088Z,19.10
2018-11-25T00:57:42.958Z,19.47
2018-11-25T01:00:19.225Z,18.37
2018-11-25T01:02:49.084Z,19.00
2018-11-25T01:05:17.971Z,18.23
2018-11-25T01:07:46.803Z,19.57
2018-11-25T01:10:16.698Z,19.87
2018-11-25T01:12:45.825Z,19.00
2018-11-25T01:15:18.030Z,19.63
2018-11-25T01:17:46.975Z,19.90
2018-11-25T01:20:17.137Z,19.47
2018-11-25T01:22:45.973Z,19.87
2018-11-25T01:25:14.901Z,20.53
2018-11-25T01:27:44.138Z,20.23
2018-11-25T01:30:15.634Z,19.60
2018-11-25T01:32:44.498Z,19.43
2018-11-25T01:35:13.990Z,19.80
2018-11-25T01:37:42.913Z,19.10
2018-11-25T01:40:13.729Z,18.10
2018-11-25T01:42:42.573Z,19.43
2018-11-25T01:45:15.317Z,18.20
2018-11-25T01:47:44.198Z,17.13
2018-11-25T01:50:15.376Z,16.77
2018-11-25T01:52:44.189Z,17.20
2018-11-25T01:55:14.047Z,16.70
2018-11-25T01:57:43.241Z,16.23
2018-11-25T02:00:18.822Z,16.40
2018-11-25T02:02:47.693Z,17.47
2018-11-25T02:05:16.657Z,18.53
2018-11-25T02:07:45.516Z,18.97
2018-11-25T02:10:16.354Z,18.23
2018-11-25T02:12:45.262Z,19.37
2018-11-25T02:15:15.158Z,18.07
2018-11-25T02:17:44.090Z,18.80
2018-11-25T02:20:20.636Z,19.57
2018-11-25T02:22:49.653Z,18.27
2018-11-25T02:25:18.477Z,18.03
2018-11-25T02:27:47.386Z,18.70
2018-11-25T02:30:17.273Z,19.43
2018-11-25T02:32:46.567Z,18.77
2018-11-25T02:35:16.114Z,19.57
2018-11-25T02:37:45.765Z,19.90
2018-11-25T02:40:15.364Z,18.90
2018-11-25T02:42:44.625Z,19.93
2018-11-25T02:45:17.236Z,18.87
2018-11-25T02:47:46.137Z,18.77
2018-11-25T02:50:25.378Z,18.60
2018-11-25T02:52:54.917Z,19.87
2018-11-25T02:55:24.662Z,19.63
2018-11-25T02:57:54.118Z,20.43
2018-11-25T03:00:23.519Z,18.67
2018-11-25T03:02:52.401Z,19.50
2018-11-25T03:05:21.302Z,18.37
2018-11-25T03:07:50.193Z,19.23
2018-11-25T03:10:19.026Z,19.00
2018-11-25T03:12:47.880Z,19.87
2018-11-25T03:15:18.326Z,19.40
2018-11-25T03:17:47.193Z,20.10
2018-11-25T03:20:16.826Z,19.63
2018-11-25T03:22:45.751Z,20.23
2018-11-25T03:25:16.518Z,20.57
2018-11-25T03:27:45.502Z,19.63
2018-11-25T03:30:17.486Z,20.13
2018-11-25T03:32:47.070Z,20.00
2018-11-25T03:35:15.915Z,19.80
2018-11-25T03:37:44.762Z,18.57
2018-11-25T03:40:14.439Z,20.17
2018-11-25T03:42:43.298Z,19.37
2018-11-25T03:45:14.002Z,19.63
2018-11-25T03:47:42.858Z,19.30
2018-11-25T03:50:12.527Z,20.27
2018-11-25T03:52:41.753Z,19.57
2018-11-25T03:55:18.021Z,20.73
2018-11-25T03:57:46.910Z,19.53
2018-11-25T04:00:18.514Z,19.70
2018-11-25T04:02:47.369Z,18.83
2018-11-25T04:05:16.853Z,19.20
2018-11-25T04:07:45.700Z,19.57
2018-11-25T04:10:16.306Z,21.17
2018-11-25T04:12:46.512Z,18.40
2018-11-25T04:15:18.192Z,19.90
2018-11-25T04:17:47.362Z,19.07
2018-11-25T04:20:19.982Z,17.33
2018-11-25T04:22:49.173Z,19.90
2018-11-25T04:25:18.077Z,16.60
2018-11-25T04:27:46.983Z,17.90
2018-11-25T04:30:18.354Z,16.33
2018-11-25T04:32:48.184Z,16.93
2018-11-25T04:35:16.998Z,16.47
2018-11-25T04:37:45.837Z,15.57
2018-11-25T04:40:15.342Z,16.53
2018-11-25T04:42:44.216Z,17.27
2018-11-25T04:45:14.030Z,17.00
2018-11-25T04:47:42.934Z,15.40
2018-11-25T04:50:19.111Z,17.53
2018-11-25T04:52:48.124Z,15.87
2018-11-25T04:55:17.482Z,17.00
2018-11-25T04:57:52.106Z,16.30
2018-11-25T05:00:21.070Z,17.23
2018-11-25T05:02:50.691Z,15.90
2018-11-25T05:05:19.966Z,18.20
2018-11-25T05:07:48.828Z,15.40
2018-11-25T05:10:18.309Z,17.27
2018-11-25T05:12:47.201Z,20.57
2018-11-25T05:15:18.057Z,16.23
2018-11-25T05:17:46.909Z,17.40
2018-11-25T05:20:16.282Z,17.13
2018-11-25T05:22:45.134Z,20.50
2018-11-25T05:25:17.262Z,21.37
2018-11-25T05:27:46.120Z,19.03
2018-11-25T05:30:20.746Z,18.27
2018-11-25T05:32:49.914Z,17.57
2018-11-25T05:35:19.576Z,18.03
2018-11-25T05:37:48.454Z,19.63
2018-11-25T05:40:17.490Z,17.83
2018-11-25T05:42:46.398Z,19.33
2018-11-25T05:45:16.459Z,18.23
2018-11-25T05:47:45.320Z,19.43
2018-11-25T05:50:18.316Z,21.67
2018-11-25T05:52:47.230Z,19.00
2018-11-25T05:55:16.101Z,19.70
2018-11-25T05:57:44.970Z,20.77
2018-11-25T06:00:16.746Z,20.67
2018-11-25T06:02:45.611Z,18.67
2018-11-25T06:05:14.473Z,19.73
2018-11-25T06:07:43.285Z,21.93
2018-11-25T06:10:13.047Z,17.77
2018-11-25T06:12:42.023Z,21.00
2018-11-25T06:15:11.977Z,18.07
2018-11-25T06:17:40.833Z,21.53
2018-11-25T06:20:15.253Z,20.23
2018-11-25T06:22:44.222Z,18.87
2018-11-25T06:25:14.976Z,18.53
2018-11-25T06:27:43.813Z,21.13
2018-11-25T06:30:17.519Z,19.77
2018-11-25T06:32:46.339Z,18.90
2018-11-25T06:35:16.024Z,21.97
2018-11-25T06:37:44.887Z,18.57
2018-11-25T06:40:19.293Z,20.40
2018-11-25T06:42:48.520Z,18.57
2018-11-25T06:45:19.617Z,17.97
2018-11-25T06:47:48.462Z,18.07
2018-11-25T06:50:17.321Z,19.57
2018-11-25T06:52:46.162Z,19.87
2018-11-25T06:55:15.030Z,21.20
2018-11-25T06:57:43.862Z,19.83
2018-11-25T07:00:27.364Z,21.77
2018-11-25T07:02:56.219Z,19.20
2018-11-25T07:05:25.090Z,23.87
2018-11-25T07:07:53.938Z,22.53
2018-11-25T07:10:23.277Z,18.83
2018-11-25T07:12:53.094Z,18.80
2018-11-25T07:15:21.980Z,18.33
2018-11-25T07:17:50.806Z,22.33
2018-11-25T07:20:20.301Z,18.63
2018-11-25T07:22:49.123Z,18.30
2018-11-25T07:25:19.855Z,17.70
2018-11-25T07:27:48.671Z,18.53
2018-11-25T07:30:19.589Z,17.17
2018-11-25T07:32:48.425Z,18.90
2018-11-25T07:35:17.317Z,18.03
2018-11-25T07:37:46.134Z,17.60
2018-11-25T07:40:22.876Z,19.47
2018-11-25T07:42:51.725Z,17.33
2018-11-25T07:45:29.503Z,17.97
2018-11-25T07:47:50.507Z,17.07
2018-11-25T07:50:19.367Z,15.87
2018-11-25T07:52:49.062Z,15.80
2018-11-25T07:55:18.997Z,17.80
2018-11-25T07:57:48.234Z,15.03
2018-11-25T08:00:19.065Z,14.17
2018-11-25T08:02:47.905Z,14.13
2018-11-25T08:05:19.679Z,16.43
2018-11-25T08:07:50.533Z,15.63
2018-11-25T08:10:19.412Z,15.73
2018-11-25T08:12:48.452Z,15.37
2018-11-25T08:15:18.101Z,14.63
2018-11-25T08:17:46.983Z,13.83
2018-11-25T08:20:17.690Z,14.27
2018-11-25T08:22:46.589Z,14.93
2018-11-25T08:25:17.165Z,14.03
2018-11-25T08:27:46.061Z,15.67
2018-11-25T08:30:16.921Z,13.50
2018-11-25T08:32:45.802Z,14.40
2018-11-25T08:35:16.038Z,13.80
2018-11-25T08:37:45.146Z,15.30
2018-11-25T08:40:14.997Z,12.90
2018-11-25T08:42:44.105Z,12.67
2018-11-25T08:45:13.767Z,13.33
2018-11-25T08:47:43.040Z,13.70
2018-11-25T08:50:13.909Z,13.37
2018-11-25T08:52:43.760Z,14.40
2018-11-25T08:55:17.143Z,13.93
2018-11-25T08:57:46.045Z,14.40
2018-11-25T09:00:29.945Z,14.60
2018-11-25T09:02:58.782Z,13.33
2018-11-25T09:05:27.644Z,14.17
2018-11-25T09:07:57.252Z,14.93
2018-11-25T09:10:26.171Z,14.40
2018-11-25T09:12:57.092Z,17.37
2018-11-25T09:15:29.134Z,15.60
2018-11-25T09:17:58.014Z,15.50
2018-11-25T09:20:26.921Z,16.23
2018-11-25T09:22:55.822Z,16.27
2018-11-25T09:25:28.517Z,17.43
2018-11-25T09:27:57.970Z,16.07
2018-11-25T09:30:27.646Z,16.73
2018-11-25T09:32:56.528Z,17.20
2018-11-25T09:35:25.913Z,17.60
2018-11-25T09:37:54.790Z,17.90
2018-11-25T09:40:24.650Z,17.83
2018-11-25T09:42:53.514Z,19.70
2018-11-25T09:45:22.386Z,18.13
2018-11-25T09:47:51.634Z,18.83
2018-11-25T09:50:21.393Z,16.83
2018-11-25T09:52:50.264Z,17.30
2018-11-25T09:55:19.965Z,17.07
2018-11-25T09:57:54.778Z,18.50
2018-11-25T10:00:33.114Z,17.23
2018-11-25T10:03:02.355Z,16.83
2018-11-25T10:05:31.214Z,17.90
2018-11-25T10:08:00.109Z,17.73
2018-11-25T10:10:28.955Z,18.57
2018-11-25T10:12:57.799Z,18.07
2018-11-25T10:15:27.614Z,18.60
2018-11-25T10:17:59.688Z,19.57
2018-11-25T10:20:27.283Z,19.33
2018-11-25T10:22:56.157Z,18.80
2018-11-25T10:25:25.248Z,19.50
2018-11-25T10:27:54.238Z,21.17
2018-11-25T10:30:28.033Z,21.80
2018-11-25T10:33:04.987Z,22.23
2018-11-25T10:35:33.810Z,21.33
2018-11-25T10:38:02.667Z,22.67
2018-11-25T10:40:31.509Z,22.40
2018-11-25T10:43:00.356Z,22.07
2018-11-25T10:45:29.327Z,21.17
2018-11-25T10:47:58.691Z,20.37
2018-11-25T10:50:27.593Z,21.00
2018-11-25T10:52:57.573Z,20.00
2018-11-25T10:55:26.409Z,20.33
2018-11-25T10:57:55.269Z,18.50
2018-11-25T11:00:37.064Z,19.20
2018-11-25T11:03:13.282Z,18.83
2018-11-25T11:05:48.755Z,19.37
2018-11-25T11:08:17.707Z,19.23
2018-11-25T11:10:46.551Z,19.10
2018-11-25T11:13:15.423Z,19.07
2018-11-25T11:15:44.245Z,19.27
2018-11-25T11:18:13.685Z,19.57
2018-11-25T11:20:42.554Z,18.30
2018-11-25T11:23:11.429Z,17.80
2018-11-25T11:25:40.265Z,18.23
2018-11-25T11:28:09.134Z,17.17
2018-11-25T11:30:37.978Z,17.30
2018-11-25T11:33:07.027Z,16.40
2018-11-25T11:35:35.859Z,17.13
2018-11-25T11:38:04.757Z,18.33
2018-11-25T11:40:33.594Z,18.83
2018-11-25T11:43:02.499Z,19.40
2018-11-25T11:45:31.317Z,20.47
2018-11-25T11:48:00.157Z,20.97
2018-11-25T11:50:28.985Z,21.03
2018-11-25T11:52:57.834Z,21.23
2018-11-25T11:55:26.666Z,48.17
2018-11-25T11:57:55.545Z,34.97
2018-11-25T12:00:25.727Z,24.83
2018-11-25T12:02:54.593Z,21.03
2018-11-25T12:05:23.439Z,20.17
2018-11-25T12:07:52.309Z,18.03
2018-11-25T12:10:21.166Z,19.37
2018-11-25T12:12:49.981Z,17.97
2018-11-25T12:15:20.198Z,15.73
2018-11-25T12:17:49.015Z,15.50
2018-11-25T12:20:21.172Z,26.20
2018-11-25T12:22:47.223Z,14.53
2018-11-25T12:25:16.897Z,14.23
2018-11-25T12:27:45.758Z,13.80
2018-11-25T12:30:15.554Z,14.20
2018-11-25T12:32:45.712Z,13.63
2018-11-25T12:35:15.449Z,14.03
2018-11-25T12:37:44.411Z,13.67
2018-11-25T12:40:17.594Z,13.83
2018-11-25T12:42:47.793Z,13.37
2018-11-25T12:45:17.355Z,13.40
2018-11-25T12:47:46.181Z,12.53
2018-11-25T12:50:16.099Z,12.70
2018-11-25T12:52:45.055Z,11.83
2018-11-25T12:55:16.858Z,11.87
2018-11-25T12:57:45.691Z,12.53
2018-11-25T13:00:19.954Z,11.20
2018-11-25T13:02:48.950Z,11.70
2018-11-25T13:05:17.822Z,10.67
2018-11-25T13:07:46.653Z,17.53
2018-11-25T13:10:15.578Z,11.50
2018-11-25T13:12:44.410Z,15.83
2018-11-25T13:15:13.662Z,13.07
2018-11-25T13:17:42.514Z,10.67
2018-11-25T13:20:12.381Z,10.20
2018-11-25T13:22:41.414Z,9.83
2018-11-25T13:25:11.950Z,10.63
2018-11-25T13:27:40.787Z,10.27
2018-11-25T13:30:17.691Z,10.10
2018-11-25T13:32:46.762Z,10.53
2018-11-25T13:35:15.647Z,14.80
2018-11-25T13:37:44.489Z,10.10
2018-11-25T13:40:14.450Z,10.10
2018-11-25T13:42:43.294Z,9.97
2018-11-25T13:45:12.518Z,10.23
2018-11-25T13:47:41.357Z,30.33
2018-11-25T13:50:11.159Z,63.90
2018-11-25T13:52:40.087Z,28.60
2018-11-25T13:55:17.679Z,63.80
2018-11-25T13:57:46.530Z,15.93
2018-11-25T14:01:18.697Z,33.57
2018-11-25T14:03:47.530Z,15.43
2018-11-25T14:06:16.383Z,11.13
2018-11-25T14:08:48.518Z,9.93
2018-11-25T14:11:17.366Z,9.27
2018-11-25T14:13:46.208Z,8.57
2018-11-25T14:16:17.645Z,13.93
2018-11-25T14:18:46.531Z,13.03
2018-11-25T14:21:15.809Z,10.97
2018-11-25T14:23:46.578Z,11.10
2018-11-25T14:26:26.270Z,9.30
2018-11-25T14:28:55.162Z,9.43
2018-11-25T14:31:24.050Z,9.03
2018-11-25T14:33:52.874Z,9.73
2018-11-25T14:36:21.726Z,11.03
2018-11-25T14:38:50.548Z,8.83
2018-11-25T14:41:20.246Z,10.73
2018-11-25T14:43:49.111Z,16.87
2018-11-25T14:46:19.990Z,16.60
2018-11-25T14:48:48.829Z,13.40
2018-11-25T14:51:17.694Z,9.37
2018-11-25T14:53:46.522Z,8.27
2018-11-25T14:56:15.382Z,8.07
2018-11-25T14:58:44.201Z,8.90
2018-11-25T15:01:13.117Z,9.20
2018-11-25T15:03:41.947Z,8.53
2018-11-25T15:06:10.802Z,10.23
2018-11-25T15:08:39.625Z,10.03
2018-11-25T15:11:09.337Z,10.10
2018-11-25T15:13:38.178Z,10.90
2018-11-25T15:16:09.437Z,9.90
2018-11-25T15:18:38.326Z,10.47
2018-11-25T15:21:08.234Z,9.53
2018-11-25T15:23:37.135Z,9.43
2018-11-25T15:26:06.869Z,10.33
2018-11-25T15:28:35.733Z,12.67
2018-11-25T15:31:04.966Z,13.50
2018-11-25T15:33:33.839Z,12.87
2018-11-25T15:36:02.666Z,12.37
2018-11-25T15:38:31.537Z,10.83
2018-11-25T15:41:00.358Z,10.60
2018-11-25T15:43:29.206Z,10.47
2018-11-25T15:45:58.034Z,10.60
2018-11-25T15:48:28.464Z,11.13
2018-11-25T15:50:57.314Z,11.20
2018-11-25T15:53:26.185Z,10.93
2018-11-25T15:55:58.669Z,11.40
2018-11-25T15:58:27.518Z,11.47
2018-11-25T16:00:56.368Z,10.77
2018-11-25T16:03:25.226Z,11.67
2018-11-25T16:05:58.434Z,11.23
2018-11-25T16:08:27.359Z,10.77
2018-11-25T16:10:56.179Z,10.40
2018-11-25T16:13:25.051Z,10.63
2018-11-25T16:15:53.918Z,11.73
2018-11-25T16:18:22.790Z,10.60
2018-11-25T16:20:53.360Z,11.87
2018-11-25T16:23:22.226Z,12.47
2018-11-25T16:25:53.906Z,11.97
2018-11-25T16:28:32.430Z,11.07
2018-11-25T16:31:01.309Z,11.10
2018-11-25T16:33:30.339Z,10.70
2018-11-25T16:35:59.483Z,11.33
2018-11-25T16:38:30.354Z,11.83
2018-11-25T16:40:59.753Z,16.37
2018-11-25T16:43:28.975Z,14.03
2018-11-25T16:45:58.217Z,19.90
2018-11-25T16:48:27.405Z,18.20
2018-11-25T16:50:56.726Z,25.03
2018-11-25T16:53:26.550Z,23.90
2018-11-25T16:55:56.807Z,15.90
2018-11-25T16:58:26.580Z,16.73
2018-11-25T17:00:55.819Z,18.50
2018-11-25T17:03:25.024Z,13.70
2018-11-25T17:05:54.699Z,12.23
2018-11-25T17:08:39.981Z,11.67
2018-11-25T17:11:09.402Z,13.43
2018-11-25T17:13:38.771Z,11.27
2018-11-25T17:16:08.834Z,12.17
2018-11-25T17:18:38.497Z,11.07
2018-11-25T17:21:07.715Z,11.10
2018-11-25T17:23:37.030Z,11.60
2018-11-25T17:26:06.226Z,10.23
2018-11-25T17:28:35.395Z,11.20
2018-11-25T17:31:04.625Z,11.40
2018-11-25T17:33:33.800Z,11.03
2018-11-25T17:36:02.850Z,10.20
2018-11-25T17:38:31.988Z,11.33
2018-11-25T17:41:01.148Z,10.50
2018-11-25T17:43:30.266Z,11.43
2018-11-25T17:45:59.384Z,9.93
2018-11-25T17:48:28.514Z,10.10
2018-11-25T17:50:57.648Z,10.17
2018-11-25T17:53:26.873Z,9.67
2018-11-25T17:55:56.061Z,8.47
2018-11-25T17:58:25.183Z,9.30
2018-11-25T18:01:11.063Z,15.63
2018-11-25T18:03:40.475Z,8.63
2018-11-25T18:06:09.524Z,8.53
2018-11-25T18:08:38.932Z,8.50
2018-11-25T18:11:08.431Z,11.53
2018-11-25T18:13:39.508Z,8.30
2018-11-25T18:16:11.183Z,7.73
2018-11-25T18:18:43.233Z,8.43
2018-11-25T18:21:15.276Z,10.47
2018-11-25T18:23:44.392Z,12.20
2018-11-25T18:26:13.837Z,8.20
2018-11-25T18:28:43.028Z,7.53
2018-11-25T18:31:12.632Z,14.87
2018-11-25T18:33:41.814Z,9.33
2018-11-25T18:36:12.620Z,7.53
2018-11-25T18:38:41.746Z,8.90
2018-11-25T18:41:11.931Z,7.77
2018-11-25T18:43:41.036Z,7.50
2018-11-25T18:46:10.271Z,7.90
2018-11-25T18:48:41.998Z,7.80
2018-11-25T18:51:11.081Z,10.20
2018-11-25T18:53:40.206Z,14.13
2018-11-25T18:56:09.304Z,12.33
2018-11-25T18:58:38.717Z,14.67
2018-11-25T19:01:15.690Z,11.60
2018-11-25T19:03:44.888Z,9.10
2018-11-25T19:06:13.959Z,10.70
2018-11-25T19:08:43.071Z,8.10
2018-11-25T19:11:12.208Z,10.23
2018-11-25T19:13:41.424Z,9.97
2018-11-25T19:16:10.558Z,8.70
2018-11-25T19:18:39.655Z,24.60
2018-11-25T19:21:08.798Z,9.07
2018-11-25T19:23:38.955Z,10.67
2018-11-25T19:26:09.145Z,16.93
2018-11-25T19:28:42.756Z,15.07
2018-11-25T19:31:11.972Z,10.93
2018-11-25T19:33:41.096Z,17.73
2018-11-25T19:36:10.272Z,22.37
2018-11-25T19:38:39.443Z,9.83
2018-11-25T19:41:10.860Z,16.23
2018-11-25T19:43:40.250Z,15.23
2018-11-25T19:46:09.672Z,9.10
2018-11-25T19:48:38.862Z,9.93
2018-11-25T19:51:08.134Z,8.83
2018-11-25T19:53:37.428Z,8.50
2018-11-25T19:56:06.627Z,8.87
2018-11-25T19:58:35.735Z,8.50
2018-11-25T20:01:05.175Z,8.77
2018-11-25T20:03:34.241Z,8.50
2018-11-25T20:06:03.375Z,8.93
2018-11-25T20:08:32.730Z,8.83
2018-11-25T20:11:01.995Z,8.87
2018-11-25T20:13:31.086Z,8.80
2018-11-25T20:16:05.252Z,8.70
2018-11-25T20:18:35.139Z,8.37
2018-11-25T20:21:09.287Z,8.40
2018-11-25T20:23:38.575Z,7.90
2018-11-25T20:26:07.726Z,8.50
2018-11-25T20:28:36.996Z,7.87
2018-11-25T20:31:06.813Z,8.10
2018-11-25T20:33:40.945Z,7.80
2018-11-25T20:36:10.975Z,7.07
2018-11-25T20:38:45.211Z,7.63
2018-11-25T20:41:15.577Z,7.83
2018-11-25T20:43:43.585Z,6.67
2018-11-25T20:46:18.020Z,7.13
2018-11-25T20:48:48.404Z,7.40
2018-11-25T20:51:17.937Z,7.50
2018-11-25T20:53:52.077Z,6.53
2018-11-25T20:56:21.243Z,6.60
2018-11-25T20:58:50.327Z,6.87
2018-11-25T21:01:19.437Z,6.73
2018-11-25T21:03:48.487Z,6.10
2018-11-25T21:06:17.881Z,6.93
2018-11-25T21:08:47.946Z,7.40
2018-11-25T21:11:22.628Z,6.60
2018-11-25T21:13:51.755Z,6.83
2018-11-25T21:16:20.843Z,6.33
2018-11-25T21:18:49.980Z,6.30
2018-11-25T21:21:19.102Z,6.10
2018-11-25T21:23:48.186Z,5.80
2018-11-25T21:26:17.294Z,5.83
2018-11-25T21:28:46.392Z,5.93
2018-11-25T21:31:15.560Z,6.23
2018-11-25T21:33:44.606Z,5.97
2018-11-25T21:36:13.739Z,6.10
2018-11-25T21:38:42.845Z,6.10
2018-11-25T21:41:12.694Z,5.90
2018-11-25T21:43:41.767Z,5.87
2018-11-25T21:46:11.104Z,6.43
2018-11-25T21:48:40.196Z,6.33
2018-11-25T21:51:09.250Z,5.97
2018-11-25T21:53:38.395Z,6.83
2018-11-25T21:56:07.810Z,6.47
2018-11-25T21:58:36.939Z,5.87
2018-11-25T22:01:06.968Z,6.27
2018-11-25T22:03:36.392Z,6.47
2018-11-25T22:06:05.764Z,6.13
2018-11-25T22:08:34.907Z,6.33
2018-11-25T22:11:04.043Z,6.13
2018-11-25T22:13:33.177Z,6.80
2018-11-25T22:16:02.304Z,6.80
2018-11-25T22:18:31.443Z,5.73
2018-11-25T22:21:00.558Z,5.77
2018-11-25T22:23:29.406Z,5.47
2018-11-25T22:25:58.227Z,6.50
2018-11-25T22:28:27.066Z,6.73
2018-11-25T22:30:55.903Z,5.93
2018-11-25T22:33:24.758Z,6.80
2018-11-25T22:35:53.587Z,6.87
2018-11-25T22:38:22.425Z,6.77
2018-11-25T22:40:51.244Z,7.43
2018-11-25T22:43:20.126Z,6.97
2018-11-25T22:45:48.938Z,7.40
2018-11-25T22:48:17.782Z,7.47
2018-11-25T22:50:46.600Z,7.93
2018-11-25T22:53:15.453Z,7.33
2018-11-25T22:55:44.257Z,7.33
2018-11-25T22:58:13.089Z,7.80
2018-11-25T23:00:41.989Z,7.90
2018-11-25T23:03:10.837Z,8.97
2018-11-25T23:05:50.711Z,8.40
2018-11-25T23:08:19.614Z,7.93
2018-11-25T23:10:48.430Z,7.30
2018-11-25T23:13:17.265Z,7.63
2018-11-25T23:15:46.093Z,7.13
2018-11-25T23:18:14.933Z,7.40
2018-11-25T23:20:43.760Z,7.93
2018-11-25T23:23:12.602Z,7.93
2018-11-25T23:25:41.427Z,7.23
2018-11-25T23:28:10.287Z,7.63
2018-11-25T23:30:39.128Z,7.73
2018-11-25T23:33:07.981Z,8.37
2018-11-25T23:35:36.792Z,7.13
2018-11-25T23:38:06.023Z,7.30
2018-11-25T23:40:34.838Z,8.67
2018-11-25T23:43:03.686Z,7.77
2018-11-25T23:45:32.497Z,7.53
2018-11-25T23:48:01.373Z,8.23
2018-11-25T23:50:30.182Z,7.90
2018-11-25T23:52:59.033Z,7.73
2018-11-25T23:55:27.925Z,7.53
2018-11-25T23:57:56.789Z,7.53
